Time;durP1;ratioP1;P1;durP2;ratioP2;P2;SDS_P1;SDS_P2;PMS_P1;PMS_P2;Temp;Humidity;BMP_temperature;BMP_pressure;BME280_temperature;BME280_humidity;BME280_pressure;Samples;Min_cycle;Max_cycle;Signal;HPM_P1;HPM_P2
2022/06/21 00:02:25;;;;;;;;;12.00;9.00;;;;;-143.57;100.00;65101.44;5097942;27;45266;-42
2022/06/21 00:04:51;;;;;;;;;11.33;9.00;;;;;-143.57;100.00;65101.44;5097771;27;45315;-43
2022/06/21 00:07:26;;;;;;;;;9.33;8.33;;;;;-143.57;100.00;65101.44;5097965;27;45251;-42
2022/06/21 00:09:52;;;;;;;;;8.33;8.33;;;;;-143.57;100.00;65101.44;5097159;27;46071;-42
2022/06/21 00:12:20;;;;;;;;;9.67;9.67;;;;;-143.57;100.00;65101.44;5097655;27;45276;-42
2022/06/21 00:14:45;;;;;;;;;10.67;9.67;;;;;-143.57;100.00;65101.44;5097488;27;45349;-43
2022/06/21 00:17:17;;;;;;;;;7.00;7.00;;;;;-143.57;100.00;65101.44;5097681;27;45438;-41
2022/06/21 00:19:43;;;;;;;;;10.67;10.67;;;;;-143.57;100.00;65101.44;5097736;27;45515;-42
2022/06/21 00:22:14;;;;;;;;;8.67;7.67;;;;;-143.57;100.00;65101.44;5096503;27;45234;-41
2022/06/21 00:24:40;;;;;;;;;10.33;9.00;;;;;-143.57;100.00;65101.44;5096990;27;45242;-43
2022/06/21 00:27:12;;;;;;;;;8.00;7.67;;;;;-143.57;100.00;65101.44;5097604;27;45315;-41
2022/06/21 00:29:38;;;;;;;;;10.33;10.00;;;;;-143.57;100.00;65101.44;5097083;27;46177;-41
2022/06/21 00:32:03;;;;;;;;;9.00;9.00;;;;;-143.57;100.00;65101.44;5113230;27;45402;-42
2022/06/21 00:34:29;;;;;;;;;11.00;9.00;;;;;-143.57;100.00;65101.44;5097632;27;45343;-42
2022/06/21 00:36:59;;;;;;;;;10.00;10.00;;;;;-143.57;100.00;65101.44;5098060;27;45400;-48
2022/06/21 00:39:24;;;;;;;;;11.33;9.67;;;;;-143.57;100.00;65101.44;5097233;27;46684;-47
2022/06/21 00:42:01;;;;;;;;;11.00;11.00;;;;;-143.57;100.00;65101.44;5097505;27;45513;-52
2022/06/21 00:44:36;;;;;;;;;8.00;8.00;;;;;-143.57;100.00;65101.44;5097537;27;45398;-49
2022/06/21 00:47:18;;;;;;;;;10.00;10.00;;;;;-143.57;100.00;65101.44;5097888;27;45686;-46
2022/06/21 00:49:53;;;;;;;;;12.33;9.33;;;;;-143.57;100.00;65101.44;5096992;27;45235;-46
2022/06/21 00:52:45;;;;;;;;;13.00;11.33;;;;;-143.57;100.00;65101.44;5097511;27;45258;-48
2022/06/21 00:55:27;;;;;;;;;10.00;10.00;;;;;-143.57;100.00;65101.44;5100646;27;45246;-47
2022/06/21 00:57:55;;;;;;;;;11.67;10.00;;;;;-143.57;100.00;65101.44;5100691;27;45371;-49
2022/06/21 01:00:26;;;;;;;;;10.33;9.00;;;;;-143.57;100.00;65101.44;5100231;27;46002;-51
2022/06/21 01:02:52;;;;;;;;;10.67;10.67;;;;;-143.57;100.00;65101.44;5100590;27;45398;-52
2022/06/21 01:05:18;;;;;;;;;13.33;11.33;;;;;-143.57;100.00;65101.44;5100753;27;45359;-49
2022/06/21 01:07:46;;;;;;;;;12.00;10.00;;;;;-143.57;100.00;65101.44;5100698;27;45323;-48
2022/06/21 01:10:16;;;;;;;;;11.00;10.67;;;;;-143.57;100.00;65101.44;5099537;27;46258;-46
2022/06/21 01:12:48;;;;;;;;;11.00;9.67;;;;;-143.57;100.00;65101.44;5100123;27;45552;-50
2022/06/21 01:15:22;;;;;;;;;12.00;10.00;;;;;-143.57;100.00;65101.44;5100217;27;45380;-50
2022/06/21 01:17:50;;;;;;;;;16.67;10.33;;;;;-143.57;100.00;65101.44;5100645;27;45382;-48
2022/06/21 01:20:21;;;;;;;;;11.00;11.00;;;;;-143.57;100.00;65101.44;5099997;27;47097;-51
2022/06/21 01:23:02;;;;;;;;;11.67;11.33;;;;;-143.57;100.00;65101.44;5081083;27;45212;-47
2022/06/21 01:25:38;;;;;;;;;13.33;10.67;;;;;-143.57;100.00;65101.44;5100410;27;45385;-50
2022/06/21 01:28:05;;;;;;;;;10.00;10.00;;;;;-143.57;100.00;65101.44;5100254;27;45500;-46
2022/06/21 01:30:31;;;;;;;;;16.67;10.67;;;;;-143.57;100.00;65101.44;5099749;27;46178;-49
2022/06/21 01:33:00;;;;;;;;;12.67;11.33;;;;;-143.57;100.00;65101.44;5100265;27;45330;-49
2022/06/21 01:35:31;;;;;;;;;16.00;12.33;;;;;-143.57;100.00;65101.44;5100119;27;45427;-47
2022/06/21 01:37:58;;;;;;;;;11.33;11.33;;;;;-143.57;100.00;65101.44;5100218;27;45302;-50
2022/06/21 01:40:29;;;;;;;;;11.00;10.00;;;;;-143.57;100.00;65101.44;5099957;27;45469;-50
2022/06/21 01:43:03;;;;;;;;;13.33;13.33;;;;;-143.57;100.00;65101.44;5099747;27;45474;-49
2022/06/21 01:45:46;;;;;;;;;11.33;10.67;;;;;-143.57;100.00;65101.44;5099635;27;45519;-48
2022/06/21 01:48:14;;;;;;;;;10.33;10.00;;;;;-143.57;100.00;65101.44;5099871;27;45478;-46
2022/06/21 01:50:43;;;;;;;;;15.00;10.33;;;;;-143.57;100.00;65101.44;5100116;27;45416;-46
2022/06/21 01:53:11;;;;;;;;;10.00;10.00;;;;;-143.57;100.00;65101.44;5099791;27;45558;-56
2022/06/21 01:55:49;;;;;;;;;14.67;12.67;;;;;-143.57;100.00;65101.44;5099701;27;45339;-47
2022/06/21 01:58:19;;;;;;;;;11.33;11.00;;;;;-143.57;100.00;65101.44;5099830;27;45323;-47
2022/06/21 02:00:53;;;;;;;;;13.33;9.00;;;;;-143.57;100.00;65101.44;5099514;27;46305;-49
2022/06/21 02:03:24;;;;;;;;;11.33;9.33;;;;;-143.57;100.00;65101.44;5099439;27;45342;-48
2022/06/21 02:05:56;;;;;;;;;14.33;12.33;;;;;-143.57;100.00;65101.44;5099512;27;45409;-48
2022/06/21 02:08:28;;;;;;;;;16.00;12.33;;;;;-143.57;100.00;65101.44;5099783;27;45259;-49
2022/06/21 02:10:59;;;;;;;;;13.00;11.67;;;;;-143.57;100.00;65101.44;5099274;27;45322;-48
2022/06/21 02:13:32;;;;;;;;;10.67;10.00;;;;;-143.57;100.00;65101.44;5099398;27;45476;-51
2022/06/21 02:16:15;;;;;;;;;11.33;9.67;;;;;-143.57;100.00;65101.44;5099280;27;45346;-47
2022/06/21 02:18:47;;;;;;;;;13.00;10.00;;;;;-143.57;100.00;65101.44;5099600;27;45307;-44
2022/06/21 02:21:24;;;;;;;;;13.33;12.33;;;;;-143.57;100.00;65101.44;5114672;27;46279;-49
2022/06/21 02:23:52;;;;;;;;;11.00;10.00;;;;;-143.57;100.00;65101.44;5099172;27;45299;-52
2022/06/21 02:26:19;;;;;;;;;12.00;9.67;;;;;-143.57;100.00;65101.44;5099211;27;45337;-49
2022/06/21 02:28:46;;;;;;;;;10.00;10.00;;;;;-143.57;100.00;65101.44;5098570;27;45602;-50
2022/06/21 02:31:12;;;;;;;;;11.67;10.00;;;;;-143.57;100.00;65101.44;5098584;27;46287;-44
2022/06/21 02:33:39;;;;;;;;;10.33;10.00;;;;;-143.57;100.00;65101.44;5099365;27;45244;-47
2022/06/21 02:36:12;;;;;;;;;15.00;12.67;;;;;-143.57;100.00;65101.44;5099181;27;45322;-49
2022/06/21 02:38:43;;;;;;;;;13.33;10.33;;;;;-143.57;100.00;65101.44;5099299;27;45370;-49
2022/06/21 02:41:19;;;;;;;;;9.00;9.00;;;;;-143.57;100.00;65101.44;5098500;27;45730;-47
2022/06/21 02:43:55;;;;;;;;;15.67;13.00;;;;;-143.57;100.00;65101.44;5098938;27;45303;-46
2022/06/21 02:46:29;;;;;;;;;12.00;9.67;;;;;-143.57;100.00;65101.44;5114652;27;45351;-49
2022/06/21 02:49:01;;;;;;;;;11.00;10.33;;;;;-143.57;100.00;65101.44;5099100;27;45381;-48
2022/06/21 02:51:32;;;;;;;;;13.33;12.00;;;;;-143.57;100.00;65101.44;5098417;27;46074;-52
2022/06/21 02:54:37;;;;;;;;;12.33;12.33;;;;;-143.57;100.00;65101.44;5098756;27;45230;-46
2022/06/21 02:57:22;;;;;;;;;12.67;12.33;;;;;-143.57;100.00;65101.44;5098734;27;45361;-48
2022/06/21 02:59:51;;;;;;;;;10.67;9.00;;;;;-143.57;100.00;65101.44;5098159;27;45604;-49
2022/06/21 03:02:22;;;;;;;;;11.00;11.00;;;;;-143.57;100.00;65101.44;5098625;27;45467;-50
2022/06/21 03:04:57;;;;;;;;;10.67;9.67;;;;;-143.57;100.00;65101.44;5098398;27;45402;-49
2022/06/21 03:07:28;;;;;;;;;14.00;11.00;;;;;-143.57;100.00;65101.44;5098556;27;45429;-51
2022/06/21 03:09:54;;;;;;;;;12.67;10.67;;;;;-143.57;100.00;65101.44;5098665;27;45393;-49
2022/06/21 03:12:23;;;;;;;;;10.67;10.67;;;;;-143.57;100.00;65101.44;5098053;27;45263;-48
2022/06/21 03:14:55;;;;;;;;;10.67;10.67;;;;;-143.57;100.00;65101.44;5097625;27;45356;-51
2022/06/21 03:17:29;;;;;;;;;10.67;10.67;;;;;-143.57;100.00;65101.44;5098614;27;45337;-50
2022/06/21 03:19:54;;;;;;;;;14.00;13.00;;;;;-143.57;100.00;65101.44;5098568;27;45464;-50
2022/06/21 03:22:25;;;;;;;;;14.67;14.00;;;;;-143.57;100.00;65101.44;5097989;27;45503;-50
2022/06/21 03:24:55;;;;;;;;;11.00;11.00;;;;;-143.57;100.00;65101.44;5098317;27;45389;-51
2022/06/21 03:27:27;;;;;;;;;11.33;11.33;;;;;-143.57;100.00;65101.44;5097391;27;45211;-50
2022/06/21 03:29:53;;;;;;;;;15.33;13.33;;;;;-143.57;100.00;65101.44;5098152;27;45411;-50
2022/06/21 03:32:19;;;;;;;;;14.33;13.00;;;;;-143.57;100.00;65101.44;5098257;27;46073;-47
2022/06/21 03:34:46;;;;;;;;;12.33;10.67;;;;;-143.57;100.00;65101.44;5097950;27;45449;-45
2022/06/21 03:37:12;;;;;;;;;10.67;10.67;;;;;-143.57;100.00;65101.44;5098334;27;45372;-50
2022/06/21 03:42:28;;;;;;;;;9.67;8.00;;;;;-143.57;100.00;65101.44;5098243;27;45303;-46
2022/06/21 03:45:00;;;;;;;;;14.67;13.67;;;;;-143.57;100.00;65101.44;5098097;27;45278;-52
2022/06/21 03:47:33;;;;;;;;;10.67;10.67;;;;;-143.57;100.00;65101.44;5098023;27;45339;-50
2022/06/21 03:50:05;;;;;;;;;16.00;13.33;;;;;-143.57;100.00;65101.44;5098251;27;45446;-49
2022/06/21 03:52:46;;;;;;;;;9.33;9.33;;;;;-143.57;100.00;65101.44;5097606;27;47658;-46
2022/06/21 03:55:17;;;;;;;;;13.00;11.67;;;;;-143.57;100.00;65101.44;5097868;27;45330;-48
2022/06/21 03:57:52;;;;;;;;;13.00;11.00;;;;;-143.57;100.00;65101.44;5097754;27;45268;-52
2022/06/21 04:00:19;;;;;;;;;16.00;14.00;;;;;-143.57;100.00;65101.44;5097957;27;45390;-42
2022/06/21 04:02:58;;;;;;;;;11.67;10.33;;;;;-143.57;100.00;65101.44;5097454;27;46992;-43
2022/06/21 04:05:38;;;;;;;;;11.33;11.33;;;;;-143.57;100.00;65101.44;5097566;27;45483;-43
2022/06/21 04:08:16;;;;;;;;;11.33;11.33;;;;;-143.57;100.00;65101.44;5097602;27;45291;-42
2022/06/21 04:10:46;;;;;;;;;15.00;12.67;;;;;-143.57;100.00;65101.44;5097905;27;45447;-47
2022/06/21 04:13:26;;;;;;;;;13.67;12.00;;;;;-143.57;100.00;65101.44;5097235;27;47229;-43
2022/06/21 04:15:59;;;;;;;;;15.33;12.00;;;;;-143.57;100.00;65101.44;5097290;27;45445;-43
2022/06/21 04:18:31;;;;;;;;;11.33;11.33;;;;;-143.57;100.00;65101.44;5097645;27;45238;-45
2022/06/21 04:21:07;;;;;;;;;13.67;11.67;;;;;-143.57;100.00;65101.44;5097618;27;45192;-44
2022/06/21 04:24:31;;;;;;;;;14.33;12.67;;;;;-143.57;100.00;65101.44;5097421;27;47200;-42
2022/06/21 04:27:27;;;;;;;;;14.00;12.67;;;;;-143.57;100.00;65101.44;5009797;28;45525;-44
2022/06/21 04:30:15;;;;;;;;;15.00;11.67;;;;;-143.57;100.00;65101.44;5038192;28;45545;-45
2022/06/21 04:32:46;;;;;;;;;16.33;13.00;;;;;-143.57;100.00;65101.44;5038035;28;45445;-45
2022/06/21 04:35:32;;;;;;;;;18.00;14.67;;;;;-143.57;100.00;65101.44;5037798;28;46104;-48
2022/06/21 04:38:24;;;;;;;;;14.67;13.33;;;;;-143.57;100.00;65101.44;5037723;28;45386;-45
2022/06/21 04:40:59;;;;;;;;;14.00;13.67;;;;;-143.57;100.00;65101.44;5037920;28;45343;-45
2022/06/21 04:43:48;;;;;;;;;15.67;13.67;;;;;-143.57;100.00;65101.44;5038043;28;45601;-54
2022/06/21 04:46:24;;;;;;;;;14.00;13.67;;;;;-143.57;100.00;65101.44;5037135;28;47520;-44
2022/06/21 04:49:01;;;;;;;;;15.00;12.67;;;;;-143.57;100.00;65101.44;5037680;28;45358;-47
2022/06/21 04:51:45;;;;;;;;;14.33;12.33;;;;;-143.57;100.00;65101.44;5037774;28;45475;-42
2022/06/21 04:54:22;;;;;;;;;15.67;15.67;;;;;-143.57;100.00;65101.44;5037717;28;45398;-45
2022/06/21 04:57:09;;;;;;;;;14.00;14.00;;;;;-143.57;100.00;65101.44;5037283;28;47080;-43
2022/06/21 04:59:43;;;;;;;;;13.67;13.67;;;;;-143.57;100.00;65101.44;5043195;27;45972;-45
2022/06/21 05:02:20;;;;;;;;;17.67;14.00;;;;;-143.57;100.00;65101.44;5100533;27;45341;-43
2022/06/21 05:04:48;;;;;;;;;15.67;12.33;;;;;-143.57;100.00;65101.44;5100800;27;45386;-44
2022/06/21 05:07:22;;;;;;;;;18.33;13.67;;;;;-143.57;100.00;65101.44;5100226;27;46287;-42
2022/06/21 05:09:50;;;;;;;;;18.33;16.33;;;;;-143.57;100.00;65101.44;5100013;27;45428;-47
2022/06/21 05:12:31;;;;;;;;;13.00;12.33;;;;;-143.57;100.00;65101.44;5099743;27;45336;-46
2022/06/21 05:15:17;;;;;;;;;11.33;11.33;;;;;-143.57;100.00;65101.44;5100689;27;45363;-47
2022/06/21 05:17:49;;;;;;;;;15.33;14.00;;;;;-143.57;100.00;65101.44;5100166;27;46188;-46
2022/06/21 05:20:20;;;;;;;;;18.67;12.33;;;;;-143.57;100.00;65101.44;5100210;27;45290;-42
2022/06/21 05:22:54;;;;;;;;;14.33;13.33;;;;;-143.57;100.00;65101.44;5099900;27;45394;-50
2022/06/21 05:25:33;;;;;;;;;20.00;14.00;;;;;-143.57;100.00;65101.44;5100641;27;45246;-45
2022/06/21 05:28:32;;;;;;;;;14.00;14.00;;;;;-143.57;100.00;65101.44;5100162;27;45360;-44
2022/06/21 05:31:14;;;;;;;;;18.00;16.00;;;;;-143.57;100.00;65101.44;5092321;27;45343;-45
2022/06/21 05:33:46;;;;;;;;;12.33;12.33;;;;;-143.57;100.00;65101.44;5100024;27;45331;-44
2022/06/21 05:36:17;;;;;;;;;14.33;13.33;;;;;-143.57;100.00;65101.44;5100271;27;45239;-40
2022/06/21 05:38:54;;;;;;;;;11.33;11.33;;;;;-143.57;100.00;65101.44;5099166;27;45390;-45
2022/06/21 05:41:35;;;;;;;;;14.67;12.67;;;;;-143.57;100.00;65101.44;5099699;27;45336;-41
2022/06/21 05:44:08;;;;;;;;;13.67;12.00;;;;;-143.57;100.00;65101.44;5099968;27;45394;-42
2022/06/21 05:46:39;;;;;;;;;15.00;13.33;;;;;-143.57;100.00;65101.44;5100021;27;45410;-42
2022/06/21 05:49:08;;;;;;;;;16.00;13.33;;;;;-143.57;100.00;65101.44;5099381;27;46104;-47
2022/06/21 05:51:34;;;;;;;;;13.33;12.33;;;;;-143.57;100.00;65101.44;5099834;27;45395;-48
2022/06/21 05:54:14;;;;;;;;;16.67;13.00;;;;;-143.57;100.00;65101.44;5100791;27;45366;-42
2022/06/21 05:56:40;;;;;;;;;15.33;12.67;;;;;-143.57;100.00;65101.44;5100715;27;45447;-46
2022/06/21 05:59:14;;;;;;;;;11.67;11.67;;;;;-143.57;100.00;65101.44;5100369;27;45353;-41
2022/06/21 06:01:46;;;;;;;;;16.00;12.67;;;;;-143.57;100.00;65101.44;5100413;27;45194;-48
2022/06/21 06:04:25;;;;;;;;;12.67;12.33;;;;;-143.57;100.00;65101.44;5100155;27;45304;-42
2022/06/21 06:06:54;;;;;;;;;16.00;12.00;;;;;-143.57;100.00;65101.44;5100039;27;45361;-49
2022/06/21 06:09:37;;;;;;;;;13.33;13.33;;;;;-143.57;100.00;65101.44;5099786;27;46207;-41
2022/06/21 06:12:43;;;;;;;;;15.67;15.33;;;;;-143.57;100.00;65101.44;5099452;27;45382;-49
2022/06/21 06:15:23;;;;;;;;;19.00;14.67;;;;;-143.57;100.00;65101.44;5019118;28;45453;-47
2022/06/21 06:17:51;;;;;;;;;18.00;13.00;;;;;-143.57;100.00;65101.44;5036008;28;45360;-43
2022/06/21 06:20:35;;;;;;;;;15.67;14.00;;;;;-143.57;100.00;65101.44;5036009;28;45660;-48
2022/06/21 06:23:38;;;;;;;;;14.00;14.00;;;;;-143.57;100.00;65101.44;5036272;28;45518;-50
2022/06/21 06:26:12;;;;;;;;;15.33;14.00;;;;;-143.57;100.00;65101.44;5035945;28;45347;-47
2022/06/21 06:28:50;;;;;;;;;19.67;14.33;;;;;-143.57;100.00;65101.44;5036354;28;45335;-45
2022/06/21 06:31:35;;;;;;;;;12.33;10.00;;;;;-143.57;100.00;65101.44;5035742;28;46113;-51
2022/06/21 06:34:07;;;;;;;;;15.00;15.00;;;;;-143.57;100.00;65101.44;5035688;28;45401;-50
2022/06/21 06:36:36;;;;;;;;;12.67;11.67;;;;;-143.57;100.00;65101.44;5035929;28;45311;-52
2022/06/21 06:39:14;;;;;;;;;14.67;13.67;;;;;-143.57;100.00;65101.44;5036284;28;45399;-52
2022/06/21 06:41:51;;;;;;;;;10.33;10.00;;;;;-143.57;100.00;65101.44;5035828;28;46175;-49
2022/06/21 06:44:21;;;;;;;;;14.67;13.00;;;;;-143.57;100.00;65101.44;5035533;28;45469;-49
2022/06/21 06:46:50;;;;;;;;;15.33;13.67;;;;;-143.57;100.00;65101.44;5035736;28;45508;-42
2022/06/21 06:49:41;;;;;;;;;12.25;11.75;;;;;-143.57;100.00;65101.44;5035888;28;45365;-42
2022/06/21 06:52:21;;;;;;;;;12.75;10.25;;;;;-143.57;100.00;65101.44;5027025;28;46167;-50
2022/06/21 06:55:11;;;;;;;;;13.50;12.50;;;;;-143.57;100.00;65101.44;5035665;28;45344;-52
2022/06/21 06:58:00;;;;;;;;;15.25;13.75;;;;;-143.57;100.00;65101.44;5035584;28;45467;-51
2022/06/21 07:00:31;;;;;;;;;17.00;14.25;;;;;-143.57;100.00;65101.44;5035938;28;45425;-52
2022/06/21 07:03:08;;;;;;;;;15.25;12.50;;;;;-143.57;100.00;65101.44;5035198;28;45375;-52
2022/06/21 07:05:45;;;;;;;;;15.00;12.20;;;;;-143.57;100.00;65101.44;5035430;28;45400;-51
2022/06/21 07:08:36;;;;;;;;;8.00;6.40;;;;;-143.57;100.00;65101.44;5035540;28;45371;-51
2022/06/21 07:11:10;;;;;;;;;11.00;11.00;;;;;-143.57;100.00;65101.44;4975642;28;46145;-46
2022/06/21 07:13:35;;;;;;;;;15.00;12.00;;;;;-143.57;100.00;65101.44;4975808;28;46093;-47
2022/06/21 07:16:06;;;;;;;;;11.50;11.50;;;;;-143.57;100.00;65101.44;4975699;28;45354;-47
2022/06/21 07:18:41;;;;;;;;;9.40;9.40;;;;;-143.57;100.00;65101.44;4975797;28;45415;-43
2022/06/21 07:21:07;;;;;;;;;12.20;10.60;;;;;-143.57;100.00;65101.44;4975809;28;45281;-46
2022/06/21 07:23:32;;;;;;;;;12.25;10.50;;;;;-143.57;100.00;65101.44;4975856;28;45956;-48
2022/06/21 07:26:14;;;;;;;;;8.00;7.00;;;;;-143.57;100.00;65101.44;4975527;28;45373;-45
2022/06/21 07:28:43;;;;;;;;;11.20;10.00;;;;;-143.57;100.00;65101.44;4988442;28;45329;-50
2022/06/21 07:31:23;;;;;;;;;10.20;10.20;;;;;-143.57;100.00;65101.44;5015767;28;45360;-44
2022/06/21 07:33:51;;;;;;;;;10.00;9.60;;;;;-143.57;100.00;65101.44;5015084;28;47022;-46
2022/06/21 07:36:28;;;;;;;;;12.00;10.60;;;;;-143.57;100.00;65101.44;5014823;28;45435;-48
2022/06/21 07:39:04;;;;;;;;;10.40;10.40;;;;;-143.57;100.00;65101.44;5015337;28;45390;-51
2022/06/21 07:41:40;;;;;;;;;11.20;11.20;;;;;-143.57;100.00;65101.44;5015447;28;45451;-46
2022/06/21 07:44:28;;;;;;;;;14.80;11.20;;;;;-143.57;100.00;65101.44;5015029;28;47110;-52
2022/06/21 07:47:00;;;;;;;;;11.80;10.60;;;;;-143.57;100.00;65101.44;5016694;27;45409;-42
2022/06/21 07:49:31;;;;;;;;;9.80;9.20;;;;;-143.57;100.00;65101.44;5097655;27;45609;-42
2022/06/21 07:52:05;;;;;;;;;9.60;8.80;;;;;-143.57;100.00;65101.44;5098049;27;45227;-50
2022/06/21 07:54:38;;;;;;;;;9.60;9.60;;;;;-143.57;100.00;65101.44;5097605;27;46015;-44
2022/06/21 07:57:19;;;;;;;;;9.60;9.60;;;;;-143.57;100.00;65101.44;5097722;27;45461;-47
2022/06/21 07:59:53;;;;;;;;;12.60;11.60;;;;;-143.57;100.00;65101.44;5097673;27;45351;-44
2022/06/21 08:06:41;;;;;;;;;14.20;11.00;;;;;-143.57;100.00;65101.44;5097473;27;45773;-50
2022/06/21 08:08:21;;;;;;;;;12.80;11.00;;;;;-143.57;100.00;65101.44;5097382;27;45354;-47
2022/06/21 08:10:53;;;;;;;;;15.80;13.40;;;;;-143.57;100.00;65101.44;5096644;27;45584;-50
2022/06/21 08:13:18;;;;;;;;;11.80;10.00;;;;;-143.57;100.00;65101.44;5096774;27;45440;-47
2022/06/21 08:15:54;;;;;;;;;5.75;5.75;;;;;-143.57;100.00;65101.44;5096676;27;46328;-49
2022/06/21 08:18:55;;;;;;;;;9.60;9.60;;;;;-143.57;100.00;65101.44;5097007;27;45233;-52
2022/06/21 08:21:28;;;;;;;;;12.20;11.60;;;;;-143.57;100.00;65101.44;5033924;28;45549;-48
2022/06/21 08:24:03;;;;;;;;;14.80;13.40;;;;;-143.57;100.00;65101.44;5034020;28;45424;-50
2022/06/21 08:26:32;;;;;;;;;15.80;13.20;;;;;-143.57;100.00;65101.44;5034204;28;45439;-42
2022/06/21 08:29:22;;;;;;;;;14.20;13.00;;;;;-143.57;100.00;65101.44;5033980;28;45271;-42
2022/06/21 08:31:55;;;;;;;;;13.80;13.60;;;;;-143.57;100.00;65101.44;5034402;28;45457;-51
2022/06/21 08:35:03;;;;;;;;;13.00;11.80;;;;;-143.57;100.00;65101.44;5033989;28;45254;-43
2022/06/21 08:37:47;;;;;;;;;16.00;14.40;;;;;-143.57;100.00;65101.44;4974512;28;45875;-49
2022/06/21 08:40:56;;;;;;;;;11.40;10.60;;;;;-143.57;100.00;65101.44;4974473;28;45496;-49
2022/06/21 08:43:27;;;;;;;;;13.20;12.00;;;;;-143.57;100.00;65101.44;4916536;28;45509;-49
2022/06/21 08:46:15;;;;;;;;;14.00;13.50;;;;;-143.57;100.00;65101.44;4916858;28;45477;-51
2022/06/21 08:49:09;;;;;;;;;12.50;11.75;;;;;-143.57;100.00;65101.44;4915968;28;46420;-51
2022/06/21 08:51:46;;;;;;;;;16.00;13.20;;;;;-143.57;100.00;65101.44;4893416;28;45483;-43
2022/06/21 08:54:33;;;;;;;;;19.00;17.50;;;;;-143.57;100.00;65101.44;4915330;28;45541;-49
2022/06/21 08:57:09;;;;;;;;;14.50;11.50;;;;;-143.57;100.00;65101.44;4934969;28;45425;-51
2022/06/21 08:59:40;;;;;;;;;20.25;16.75;;;;;-143.57;100.00;65101.44;4952956;28;46569;-45
2022/06/21 09:02:20;;;;;;;;;21.00;19.00;;;;;-143.57;100.00;65101.44;4953307;28;45506;-45
2022/06/21 09:05:12;;;;;;;;;21.00;17.25;;;;;-143.57;100.00;65101.44;4953619;28;45480;-47
2022/06/21 09:08:19;;;;;;;;;20.00;16.75;;;;;-143.57;100.00;65101.44;4953697;28;45771;-48
2022/06/21 09:10:44;;;;;;;;;16.50;14.00;;;;;-143.57;100.00;65101.44;4876652;29;46567;-47
2022/06/21 09:13:16;;;;;;;;;14.75;13.50;;;;;-143.57;100.00;65101.44;4877324;29;45429;-47
2022/06/21 09:15:47;;;;;;;;;15.60;15.60;;;;;-143.57;100.00;65101.44;4880542;29;45399;-42
2022/06/21 09:18:18;;;;;;;;;15.60;13.20;;;;;-143.57;100.00;65101.44;4880337;29;45547;-42
2022/06/21 09:21:08;;;;;;;;;17.50;15.00;;;;;-143.57;100.00;65101.44;4927195;28;46443;-44
2022/06/21 09:24:08;;;;;;;;;20.20;15.80;;;;;-143.57;100.00;65101.44;4956454;28;45479;-48
2022/06/21 09:26:42;;;;;;;;;17.80;17.20;;;;;-143.57;100.00;65101.44;4917728;28;45523;-48
2022/06/21 09:29:13;;;;;;;;;18.50;14.75;;;;;-143.57;100.00;65101.44;4917948;28;45417;-45
2022/06/21 09:32:00;;;;;;;;;19.20;16.40;;;;;-143.57;100.00;65101.44;4918093;28;47500;-49
2022/06/21 09:34:56;;;;;;;;;15.80;13.40;;;;;-143.57;100.00;65101.44;4917941;28;45462;-42
2022/06/21 09:37:50;;;;;;;;;15.00;13.40;;;;;-143.57;100.00;65101.44;4918229;28;45505;-49
2022/06/21 09:40:35;;;;;;;;;15.60;14.00;;;;;-143.57;100.00;65101.44;4917982;28;45428;-46
2022/06/21 09:43:03;;;;;;;;;12.60;11.60;;;;;-143.57;100.00;65101.44;4917274;28;45595;-42
2022/06/21 09:45:48;;;;;;;;;14.60;12.60;;;;;-143.57;100.00;65101.44;4917597;28;45407;-49
2022/06/21 09:48:22;;;;;;;;;14.00;13.20;;;;;-143.57;100.00;65101.44;4989802;28;45395;-49
2022/06/21 09:51:24;;;;;;;;;11.80;11.80;;;;;-143.57;100.00;65101.44;4995310;28;45333;-43
2022/06/21 09:54:08;;;;;;;;;10.40;10.40;;;;;-143.57;100.00;65101.44;4995053;28;46899;-41
2022/06/21 09:56:51;;;;;;;;;9.60;8.80;;;;;-143.57;100.00;65101.44;4995292;28;45440;-46
2022/06/21 09:59:24;;;;;;;;;11.20;10.80;;;;;-143.57;100.00;65101.44;4995190;28;45633;-50
2022/06/21 10:02:01;;;;;;;;;10.60;10.00;;;;;-143.57;100.00;65101.44;4995388;28;45569;-49
2022/06/21 10:04:52;;;;;;;;;9.40;9.40;;;;;-143.57;100.00;65101.44;5089575;27;46672;-49
2022/06/21 10:07:38;;;;;;;;;9.00;9.00;;;;;-143.57;100.00;65101.44;5098152;27;45414;-47
2022/06/21 10:10:25;;;;;;;;;9.00;7.80;;;;;-143.57;100.00;65101.44;5098198;27;45376;-51
2022/06/21 10:13:07;;;;;;;;;11.00;11.00;;;;;-143.57;100.00;65101.44;5098386;27;45509;-51
2022/06/21 10:16:08;;;;;;;;;10.00;8.60;;;;;-143.57;100.00;65101.44;5098005;27;46169;-49
2022/06/21 10:18:47;;;;;;;;;9.40;9.40;;;;;-143.57;100.00;65101.44;5097862;27;45405;-44
2022/06/21 10:21:42;;;;;;;;;10.00;8.40;;;;;-143.57;100.00;65101.44;5098023;27;45381;-49
2022/06/21 10:24:19;;;;;;;;;11.60;11.40;;;;;-143.57;100.00;65101.44;5098132;27;45459;-50
2022/06/21 10:27:18;;;;;;;;;11.40;9.60;;;;;-143.57;100.00;65101.44;5096932;27;46324;-48
2022/06/21 10:29:55;;;;;;;;;9.20;9.20;;;;;-143.57;100.00;65101.44;5096830;27;45576;-45
2022/06/21 10:32:30;;;;;;;;;10.00;10.00;;;;;-143.57;100.00;65101.44;5097915;27;45449;-50
2022/06/21 10:34:58;;;;;;;;;13.80;11.80;;;;;-143.57;100.00;65101.44;5097602;27;45430;-43
2022/06/21 10:37:44;;;;;;;;;13.20;13.20;;;;;-143.57;100.00;65101.44;5097716;27;46299;-49
2022/06/21 10:40:39;;;;;;;;;12.00;10.60;;;;;-143.57;100.00;65101.44;5097707;27;45437;-43
2022/06/21 10:43:45;;;;;;;;;11.80;11.80;;;;;-143.57;100.00;65101.44;5097570;27;45759;-47
2022/06/21 10:46:19;;;;;;;;;13.80;10.80;;;;;-143.57;100.00;65101.44;5097761;27;45587;-50
2022/06/21 10:49:14;;;;;;;;;13.20;11.20;;;;;-143.57;100.00;65101.44;5096887;27;47045;-45
2022/06/21 10:52:04;;;;;;;;;15.40;12.60;;;;;-143.57;100.00;65101.44;5097325;27;45566;-45
2022/06/21 10:54:45;;;;;;;;;10.40;10.40;;;;;-143.57;100.00;65101.44;5097497;27;45667;-46
2022/06/21 10:57:36;;;;;;;;;12.80;11.20;;;;;-143.57;100.00;65101.44;5099088;27;45440;-41
2022/06/21 11:03:24;;;;;;;;;12.40;11.00;;;;;-143.57;100.00;65101.44;5098482;27;45228;-44
2022/06/21 11:06:14;;;;;;;;;13.60;12.20;;;;;-143.57;100.00;65101.44;5098579;27;45402;-47
2022/06/21 11:08:46;;;;;;;;;14.40;12.00;;;;;-143.57;100.00;65101.44;5080249;27;45639;-41
2022/06/21 11:11:44;;;;;;;;;12.20;12.20;;;;;-143.57;100.00;65101.44;5097576;27;45608;-45
2022/06/21 11:14:23;;;;;;;;;12.40;12.40;;;;;-143.57;100.00;65101.44;5098132;27;45394;-41
2022/06/21 11:17:16;;;;;;;;;18.20;14.80;;;;;-143.57;100.00;65101.44;5064229;27;45367;-49
2022/06/21 11:20:00;;;;;;;;;14.20;12.20;;;;;-143.57;100.00;65101.44;5097694;27;45448;-42
2022/06/21 11:22:52;;;;;;;;;19.00;13.80;;;;;-143.57;100.00;65101.44;5097853;27;45487;-51
2022/06/21 11:25:30;;;;;;;;;14.40;13.40;;;;;-143.57;100.00;65101.44;5073076;27;45334;-43
2022/06/21 11:28:20;;;;;;;;;14.40;12.80;;;;;-143.57;100.00;65101.44;5097546;27;45227;-42
2022/06/21 11:31:00;;;;;;;;;14.40;12.60;;;;;-143.57;100.00;65101.44;5098133;27;45277;-41
2022/06/21 11:33:45;;;;;;;;;17.20;16.00;;;;;-143.57;100.00;65101.44;5097549;27;46075;-41
2022/06/21 11:36:32;;;;;;;;;15.40;13.20;;;;;-143.57;100.00;65101.44;5096825;27;45333;-40
2022/06/21 11:39:21;;;;;;;;;12.80;12.80;;;;;-143.57;100.00;65101.44;5097420;27;45429;-42
2022/06/21 11:42:04;;;;;;;;;13.20;13.20;;;;;-143.57;100.00;65101.44;5097975;27;45223;-44
2022/06/21 11:44:39;;;;;;;;;14.00;12.80;;;;;-143.57;100.00;65101.44;5097464;27;46279;-41
2022/06/21 11:47:18;;;;;;;;;12.80;11.20;;;;;-143.57;100.00;65101.44;5097705;27;45468;-42
2022/06/21 11:49:49;;;;;;;;;12.80;12.80;;;;;-143.57;100.00;65101.44;5096774;27;45234;-40
2022/06/21 11:52:20;;;;;;;;;13.00;12.00;;;;;-143.57;100.00;65101.44;5097868;27;45359;-41